createdAt,value
2023-05-14T00:04:14.416Z,101173.80
2023-05-14T00:09:17.451Z,101171.20
2023-05-14T00:14:20.357Z,101171.60
2023-05-14T00:19:23.319Z,101175.80
2023-05-14T00:24:26.294Z,101178.60
2023-05-14T00:29:29.410Z,101182.60
2023-05-14T00:34:32.267Z,101179.80
2023-05-14T00:39:35.230Z,101181.40
2023-05-14T00:44:38.068Z,101180.40
2023-05-14T00:49:42.170Z,101176.60
2023-05-14T00:54:48.243Z,101173.00
2023-05-14T00:59:51.131Z,101172.20
2023-05-14T01:04:54.909Z,101166.00
2023-05-14T01:10:08.550Z,101168.60
2023-05-14T01:15:21.358Z,101169.00
2023-05-14T01:20:24.480Z,101165.00
2023-05-14T01:25:27.852Z,101157.80
2023-05-14T01:30:36.729Z,101153.60
2023-05-14T01:35:40.663Z,101157.80
2023-05-14T01:40:46.070Z,101157.80
2023-05-14T01:45:48.880Z,101158.00
2023-05-14T01:50:52.066Z,101154.20
2023-05-14T01:55:54.885Z,101156.00
2023-05-14T02:00:57.874Z,101151.60
2023-05-14T02:06:00.913Z,101152.00
2023-05-14T02:11:03.763Z,101149.20
2023-05-14T02:16:07.058Z,101151.60
2023-05-14T02:21:09.931Z,101157.20
2023-05-14T02:26:12.881Z,101152.00
2023-05-14T02:31:17.706Z,101144.20
2023-05-14T02:36:20.651Z,101145.40
2023-05-14T02:41:23.486Z,101147.20
2023-05-14T02:46:26.450Z,101150.20
2023-05-14T02:51:29.462Z,101145.60
2023-05-14T02:56:32.250Z,101144.20
2023-05-14T03:01:35.136Z,101143.20
2023-05-14T03:06:38.325Z,101137.80
2023-05-14T03:11:41.361Z,101131.40
2023-05-14T03:16:44.246Z,101134.60
2023-05-14T03:21:47.248Z,101129.40
2023-05-14T03:26:50.032Z,101127.80
2023-05-14T03:31:54.427Z,101121.60
2023-05-14T03:36:57.669Z,101124.00
2023-05-14T03:42:00.674Z,101121.00
2023-05-14T03:47:03.917Z,101120.20
2023-05-14T03:52:06.940Z,101114.80
2023-05-14T03:57:09.859Z,101114.60
2023-05-14T04:02:12.915Z,101111.80
2023-05-14T04:07:15.840Z,101117.40
2023-05-14T04:12:18.775Z,101106.00
2023-05-14T04:17:21.602Z,101098.60
2023-05-14T04:22:24.490Z,101099.00
2023-05-14T04:27:28.723Z,101098.80
2023-05-14T04:32:31.659Z,101097.80
2023-05-14T04:37:34.534Z,101103.00
2023-05-14T04:42:37.673Z,101102.00
2023-05-14T04:47:42.451Z,101097.80
2023-05-14T04:52:45.713Z,101093.20
2023-05-14T04:57:49.308Z,101085.20
2023-05-14T05:02:52.342Z,101085.20
2023-05-14T05:07:55.523Z,101084.60
2023-05-14T05:12:58.357Z,101088.20
2023-05-14T05:18:01.259Z,101082.40
2023-05-14T05:23:04.160Z,101084.20
2023-05-14T05:28:07.127Z,101092.00
2023-05-14T05:33:10.127Z,101080.20
2023-05-14T05:38:15.114Z,101078.20
2023-05-14T05:43:18.107Z,101083.40
2023-05-14T05:48:21.826Z,101078.00
2023-05-14T05:53:24.655Z,101080.20
2023-05-14T05:58:27.488Z,101085.00
2023-05-14T06:03:30.400Z,101091.00
2023-05-14T06:08:34.267Z,101085.20
2023-05-14T06:13:37.639Z,101079.20
2023-05-14T06:18:41.020Z,101078.80
2023-05-14T06:23:44.470Z,101082.40
2023-05-14T06:28:47.783Z,101078.20
2023-05-14T06:33:50.735Z,101079.40
2023-05-14T06:38:53.593Z,101080.20
2023-05-14T06:43:56.475Z,101081.40
2023-05-14T06:48:59.734Z,101073.00
2023-05-14T06:54:02.714Z,101075.60
2023-05-14T06:59:05.634Z,101074.40
2023-05-14T07:04:08.541Z,101073.40
2023-05-14T07:09:11.401Z,101068.00
2023-05-14T07:14:14.325Z,101067.40
2023-05-14T07:19:17.313Z,101063.20
2023-05-14T07:24:20.382Z,101063.00
2023-05-14T07:29:25.523Z,101052.80
2023-05-14T07:34:28.450Z,101051.40
2023-05-14T07:39:31.377Z,101048.00
2023-05-14T07:44:34.157Z,101048.60
2023-05-14T07:49:37.051Z,101047.00
2023-05-14T07:54:39.909Z,101042.40
2023-05-14T07:59:42.776Z,101036.00
2023-05-14T08:04:45.740Z,101027.60
2023-05-14T08:09:48.646Z,101027.00
2023-05-14T08:14:52.134Z,101035.20
2023-05-14T08:19:54.988Z,101025.60
2023-05-14T08:24:57.820Z,101023.80
2023-05-14T08:30:00.845Z,101020.00
2023-05-14T08:35:04.654Z,101020.80
2023-05-14T08:40:09.338Z,101018.00
2023-05-14T08:45:27.445Z,101017.60
2023-05-14T08:50:31.160Z,101011.60
2023-05-14T08:55:36.662Z,101012.00
2023-05-14T09:00:41.312Z,101003.80
2023-05-14T09:05:45.948Z,100997.40
2023-05-14T09:10:48.924Z,100995.40
2023-05-14T09:15:53.278Z,100992.20
2023-05-14T09:20:56.434Z,100987.00
2023-05-14T09:25:59.361Z,100978.60
2023-05-14T09:31:03.398Z,100986.60
2023-05-14T09:36:07.086Z,100980.20
2023-05-14T09:41:10.895Z,100973.40
2023-05-14T09:46:14.694Z,100965.60
2023-05-14T09:51:18.278Z,100963.80
2023-05-14T09:56:22.178Z,100953.20
2023-05-14T10:01:26.916Z,100952.60
2023-05-14T10:06:37.442Z,100952.40
2023-05-14T10:11:45.688Z,100944.00
2023-05-14T10:16:51.857Z,100931.40
2023-05-14T10:22:07.188Z,100921.80
2023-05-14T10:27:10.572Z,100923.60
2023-05-14T10:32:14.993Z,100911.40
2023-05-14T10:37:26.081Z,100907.80
2023-05-14T10:42:45.232Z,100897.60
2023-05-14T10:47:48.982Z,100896.00
2023-05-14T10:52:52.918Z,100885.60
2023-05-14T10:57:59.244Z,100883.40
2023-05-14T11:03:06.536Z,100879.20
2023-05-14T11:08:12.516Z,100871.80
2023-05-14T11:13:18.958Z,100864.80
2023-05-14T11:18:36.971Z,100860.80
2023-05-14T11:23:39.795Z,100863.20
2023-05-14T11:28:42.692Z,100852.80
2023-05-14T11:33:45.758Z,100847.80
2023-05-14T11:38:51.896Z,100847.80
2023-05-14T11:43:55.032Z,100836.80
2023-05-14T11:48:57.824Z,100837.60
2023-05-14T11:54:00.758Z,100832.40
2023-05-14T11:59:03.572Z,100831.40
2023-05-14T12:04:06.748Z,100827.80
2023-05-14T12:09:13.034Z,100819.20
2023-05-14T12:14:21.775Z,100815.20
2023-05-14T12:19:25.972Z,100804.60
2023-05-14T12:24:29.555Z,100800.40
2023-05-14T12:29:37.933Z,100795.00
2023-05-14T12:34:40.798Z,100782.60
2023-05-14T12:39:43.745Z,100781.80
2023-05-14T12:44:46.730Z,100774.40
2023-05-14T12:49:49.949Z,100765.20
2023-05-14T12:54:53.037Z,100762.80
2023-05-14T12:59:57.418Z,100762.80
2023-05-14T13:05:07.850Z,100766.80
2023-05-14T13:10:18.965Z,100754.60
2023-05-14T13:15:23.499Z,100751.80
2023-05-14T13:20:27.897Z,100743.60
2023-05-14T13:25:30.977Z,100734.60
2023-05-14T13:30:33.818Z,100727.00
2023-05-14T13:35:36.795Z,100722.60
2023-05-14T13:40:39.601Z,100718.40
2023-05-14T13:45:42.616Z,100707.20
2023-05-14T13:50:45.534Z,100700.60
2023-05-14T13:55:50.346Z,100696.40
2023-05-14T14:00:54.007Z,100688.80
2023-05-14T14:05:56.931Z,100682.60
2023-05-14T14:11:00.387Z,100682.60
2023-05-14T14:16:03.680Z,100676.40
2023-05-14T14:21:06.759Z,100667.40
2023-05-14T14:26:09.713Z,100662.60
2023-05-14T14:31:13.342Z,100650.40
2023-05-14T14:36:16.326Z,100646.60
2023-05-14T14:41:19.311Z,100647.60
2023-05-14T14:46:22.370Z,100644.00
2023-05-14T14:51:25.516Z,100640.20
2023-05-14T14:56:28.341Z,100630.00
2023-05-14T15:01:31.510Z,100625.40
2023-05-14T15:06:34.571Z,100618.80
2023-05-14T15:11:37.776Z,100614.20
2023-05-14T15:16:42.086Z,100611.20
2023-05-14T15:21:45.259Z,100603.20
2023-05-14T15:26:50.567Z,100598.00
2023-05-14T15:31:57.945Z,100588.00
2023-05-14T15:37:03.082Z,100591.00
2023-05-14T15:42:06.879Z,100588.20
2023-05-14T15:47:09.685Z,100590.20
2023-05-14T15:52:12.757Z,100581.80
2023-05-14T15:57:17.914Z,100581.80
2023-05-14T16:02:22.893Z,100580.00
2023-05-14T16:07:25.930Z,100579.40
2023-05-14T16:12:28.881Z,100576.40
2023-05-14T16:17:32.889Z,100573.80
2023-05-14T16:22:36.649Z,100570.20
2023-05-14T16:27:39.573Z,100558.40
2023-05-14T16:32:42.676Z,100551.80
2023-05-14T16:37:45.997Z,100551.80
2023-05-14T16:42:49.481Z,100542.60
2023-05-14T16:47:52.709Z,100542.40
2023-05-14T16:52:55.767Z,100538.40
2023-05-14T16:57:58.680Z,100537.00
2023-05-14T17:03:02.503Z,100540.20
2023-05-14T17:08:05.934Z,100541.40
2023-05-14T17:13:08.881Z,100537.60
2023-05-14T17:18:29.816Z,100535.60
2023-05-14T17:23:33.557Z,100541.60
2023-05-14T17:28:36.468Z,100535.60
2023-05-14T17:33:39.362Z,100533.80
2023-05-14T17:38:42.363Z,100542.00
2023-05-14T17:43:45.358Z,100540.20
2023-05-14T17:48:48.267Z,100542.40
2023-05-14T17:53:51.251Z,100537.00
2023-05-14T17:58:54.218Z,100535.00
2023-05-14T18:03:57.347Z,100532.40
2023-05-14T18:09:00.208Z,100534.20
2023-05-14T18:14:03.387Z,100535.40
2023-05-14T18:19:06.471Z,100536.40
2023-05-14T18:24:09.465Z,100537.20
2023-05-14T18:29:12.301Z,100537.60
2023-05-14T18:34:15.293Z,100536.60
2023-05-14T18:39:18.171Z,100536.80
2023-05-14T18:44:21.772Z,100541.40
2023-05-14T18:49:24.680Z,100541.60
2023-05-14T18:54:27.624Z,100540.00
2023-05-14T18:59:30.690Z,100545.60
2023-05-14T19:04:44.308Z,100542.00
2023-05-14T19:09:53.962Z,100544.80
2023-05-14T19:14:56.819Z,100542.00
2023-05-14T19:20:00.027Z,100537.00
2023-05-14T19:25:03.729Z,100542.40
2023-05-14T19:30:08.897Z,100540.80
2023-05-14T19:35:12.216Z,100534.80
2023-05-14T19:40:15.317Z,100527.40
2023-05-14T19:45:18.281Z,100526.60
2023-05-14T19:50:21.181Z,100527.00
2023-05-14T19:55:24.360Z,100524.60
2023-05-14T20:00:31.937Z,100524.20
2023-05-14T20:05:35.390Z,100525.80
2023-05-14T20:10:38.922Z,100526.20
2023-05-14T20:15:43.144Z,100521.00
2023-05-14T20:20:46.067Z,100518.80
2023-05-14T20:25:49.013Z,100524.20
2023-05-14T20:30:52.390Z,100516.00
2023-05-14T20:35:55.513Z,100515.00
2023-05-14T20:40:58.571Z,100514.20
2023-05-14T20:46:01.573Z,100516.00
2023-05-14T20:51:06.541Z,100512.80
2023-05-14T20:56:09.602Z,100508.80
2023-05-14T21:01:12.552Z,100506.20
2023-05-14T21:06:15.459Z,100496.40
2023-05-14T21:11:18.328Z,100492.40
2023-05-14T21:16:21.792Z,100480.40
2023-05-14T21:21:24.760Z,100486.80
2023-05-14T21:26:31.810Z,100484.40
2023-05-14T21:31:34.675Z,100478.40
2023-05-14T21:36:37.854Z,100473.00
2023-05-14T21:41:40.668Z,100471.40
2023-05-14T21:46:43.536Z,100468.40
2023-05-14T21:51:46.856Z,100468.40
2023-05-14T21:56:49.854Z,100458.40
2023-05-14T22:02:06.361Z,100457.80
2023-05-14T22:07:10.792Z,100446.80
2023-05-14T22:12:13.733Z,100449.00
2023-05-14T22:17:16.835Z,100443.20
2023-05-14T22:22:19.732Z,100443.60
2023-05-14T22:27:23.033Z,100437.60
2023-05-14T22:32:26.487Z,100434.40
2023-05-14T22:37:29.413Z,100429.40
2023-05-14T22:42:32.246Z,100431.60
2023-05-14T22:47:35.137Z,100424.60
2023-05-14T22:52:39.510Z,100422.60
2023-05-14T22:57:42.443Z,100412.40
2023-05-14T23:02:45.458Z,100408.40
2023-05-14T23:07:48.446Z,100402.20
2023-05-14T23:12:51.342Z,100397.60
2023-05-14T23:17:54.328Z,100388.00
2023-05-14T23:22:57.303Z,100384.40
2023-05-14T23:28:00.464Z,100381.80
2023-05-14T23:33:03.410Z,100370.20
2023-05-14T23:38:07.461Z,100360.60
2023-05-14T23:43:10.287Z,100348.60
2023-05-14T23:48:13.152Z,100341.80
2023-05-14T23:53:16.074Z,100338.20
2023-05-14T23:58:18.984Z,100324.60
